Time;durP1;ratioP1;P1;durP2;ratioP2;P2;SDS_P1;SDS_P2;PMS_P1;PMS_P2;Temp;Humidity;BMP_temperature;BMP_pressure;BME280_temperature;BME280_humidity;BME280_pressure;Samples;Min_cycle;Max_cycle;Signal;HPM_P1;HPM_P2
2022/10/10 00:02:46;;;;;;;0.80;0.52;;;20.30;56.50;;;;;;6245884;28;20033;-66
2022/10/10 00:05:47;;;;;;;1.05;0.50;;;20.40;56.60;;;;;;6262374;28;20033;-66
2022/10/10 00:08:48;;;;;;;1.23;0.68;;;20.30;56.30;;;;;;6246131;28;20404;-66
2022/10/10 00:11:49;;;;;;;1.00;0.45;;;20.30;56.30;;;;;;6262269;28;20037;-65
2022/10/10 00:14:49;;;;;;;0.73;0.45;;;20.30;56.20;;;;;;6246864;28;20025;-66
2022/10/10 00:17:50;;;;;;;0.68;0.50;;;20.40;56.30;;;;;;6246919;28;20439;-65
2022/10/10 00:20:52;;;;;;;0.95;0.50;;;20.30;56.40;;;;;;6245796;28;20018;-66
2022/10/10 00:23:53;;;;;;;0.95;0.60;;;20.30;56.30;;;;;;6245289;28;20029;-65
2022/10/10 00:26:53;;;;;;;0.50;0.40;;;20.40;56.40;;;;;;6246634;28;20024;-66
2022/10/10 00:29:54;;;;;;;1.10;0.43;;;20.30;56.30;;;;;;6246938;28;20030;-65
2022/10/10 00:32:57;;;;;;;0.60;0.32;;;20.30;56.40;;;;;;6246795;28;20462;-66
2022/10/10 00:35:57;;;;;;;1.30;0.55;;;20.40;56.30;;;;;;6246237;28;20029;-65
2022/10/10 00:38:58;;;;;;;0.50;0.50;;;20.30;56.50;;;;;;6261666;28;20457;-66
2022/10/10 00:41:59;;;;;;;1.60;0.60;;;20.30;56.50;;;;;;6246167;28;20033;-65
2022/10/10 00:45:20;;;;;;;0.40;0.30;;;20.30;56.60;;;;;;6246102;28;20018;-66
2022/10/10 00:48:27;;;;;;;1.13;0.70;;;20.30;56.50;;;;;;6246009;28;20077;-66
2022/10/10 00:51:29;;;;;;;1.33;0.38;;;20.30;56.40;;;;;;6246248;28;20116;-65
2022/10/10 00:54:32;;;;;;;1.08;0.70;;;20.30;56.40;;;;;;6245928;28;20026;-66
2022/10/10 00:57:32;;;;;;;1.60;0.60;;;20.30;56.40;;;;;;6245866;28;20497;-65
2022/10/10 01:00:33;;;;;;;0.60;0.40;;;20.30;56.60;;;;;;6244492;28;20047;-66
2022/10/10 01:03:34;;;;;;;0.77;0.40;;;20.30;56.50;;;;;;6245866;28;20022;-65
2022/10/10 01:06:34;;;;;;;0.68;0.40;;;20.30;56.40;;;;;;6245809;28;20422;-67
2022/10/10 01:09:38;;;;;;;0.60;0.50;;;20.30;56.40;;;;;;6244752;28;20021;-66
2022/10/10 01:13:03;;;;;;;0.77;0.50;;;20.30;56.50;;;;;;6245582;28;20037;-66
2022/10/10 01:16:21;;;;;;;0.80;0.40;;;20.30;56.40;;;;;;6245459;28;20033;-66
2022/10/10 01:19:43;;;;;;;0.57;0.38;;;20.30;56.60;;;;;;6245618;28;20025;-66
2022/10/10 01:23:08;;;;;;;0.50;0.40;;;20.30;56.60;;;;;;6245361;28;20514;-65
2022/10/10 01:26:37;;;;;;;0.50;0.30;;;20.30;56.40;;;;;;6245201;28;20032;-67
2022/10/10 01:29:46;;;;;;;1.55;0.47;;;20.30;56.50;;;;;;6245222;28;20482;-66
2022/10/10 01:33:05;;;;;;;0.77;0.40;;;20.30;56.50;;;;;;6260470;28;20033;-66
2022/10/10 01:36:21;;;;;;;0.63;0.40;;;20.30;56.40;;;;;;6244880;28;20479;-66
2022/10/10 01:39:40;;;;;;;0.38;0.30;;;20.30;56.50;;;;;;6245183;28;20052;-66
2022/10/10 01:42:49;;;;;;;0.77;0.43;;;20.30;56.40;;;;;;6244803;28;20021;-66
2022/10/10 01:45:51;;;;;;;0.50;0.38;;;20.30;56.30;;;;;;6244651;28;20022;-66
2022/10/10 01:48:56;;;;;;;1.83;0.60;;;20.30;57.20;;;;;;6244650;28;20095;-66
2022/10/10 01:52:18;;;;;;;0.50;0.38;;;20.30;56.50;;;;;;6244686;28;20109;-64
2022/10/10 01:55:46;;;;;;;0.45;0.38;;;20.30;56.50;;;;;;6244966;28;20021;-66
2022/10/10 01:59:15;;;;;;;0.50;0.43;;;20.30;56.50;;;;;;6244465;28;20101;-66
2022/10/10 02:02:30;;;;;;;0.50;0.40;;;20.30;56.50;;;;;;6244173;28;20029;-66
2022/10/10 02:05:38;;;;;;;;;;;20.30;56.60;;;;;;6244741;28;20026;-66
2022/10/10 02:08:54;;;;;;;0.52;0.50;;;20.30;56.50;;;;;;6244161;28;19974;-65
2022/10/10 02:11:58;;;;;;;1.40;0.70;;;20.30;56.40;;;;;;6244147;28;20512;-65
2022/10/10 02:15:07;;;;;;;0.63;0.40;;;20.30;56.50;;;;;;6244159;28;20025;-67
2022/10/10 02:18:10;;;;;;;0.52;0.35;;;20.30;56.40;;;;;;6244000;28;20036;-66
2022/10/10 02:21:13;;;;;;;0.50;0.43;;;20.30;56.50;;;;;;6243648;28;20071;-66
2022/10/10 02:24:15;;;;;;;2.17;0.52;;;20.30;56.50;;;;;;6243883;28;20022;-65
2022/10/10 02:27:55;;;;;;;0.70;0.43;;;20.30;56.60;;;;;;6242498;28;20060;-65
2022/10/10 02:31:02;;;;;;;0.40;0.30;;;20.30;56.60;;;;;;6240223;28;20029;-66
2022/10/10 02:34:10;;;;;;;0.52;0.40;;;20.30;56.50;;;;;;6243818;28;20025;-66
2022/10/10 02:37:14;;;;;;;1.63;0.47;;;20.30;56.60;;;;;;6242331;28;20545;-66
2022/10/10 02:40:20;;;;;;;0.75;0.40;;;20.30;56.60;;;;;;6243697;28;20083;-66
2022/10/10 02:43:22;;;;;;;1.35;0.50;;;20.30;56.50;;;;;;6243726;28;20013;-66
2022/10/10 02:46:23;;;;;;;1.02;0.52;;;20.30;56.50;;;;;;6258796;28;20112;-66
2022/10/10 02:49:27;;;;;;;0.52;0.40;;;20.30;56.50;;;;;;6242130;28;20041;-64
2022/10/10 02:52:27;;;;;;;0.88;0.40;;;20.30;56.60;;;;;;6242091;28;20036;-66
2022/10/10 02:55:28;;;;;;;0.80;0.50;;;20.30;56.60;;;;;;6243209;28;20029;-65
2022/10/10 02:58:29;;;;;;;0.40;0.40;;;20.30;56.60;;;;;;6243052;28;20033;-67
2022/10/10 03:01:30;;;;;;;0.73;0.38;;;20.30;56.40;;;;;;6243212;28;20022;-65
2022/10/10 03:04:31;;;;;;;1.00;0.47;;;20.30;56.60;;;;;;6242974;28;20545;-65
2022/10/10 03:07:32;;;;;;;0.80;0.50;;;20.30;56.50;;;;;;6242899;28;20056;-66
2022/10/10 03:10:32;;;;;;;0.60;0.50;;;20.30;56.60;;;;;;6243361;28;20026;-66
2022/10/10 03:13:33;;;;;;;0.43;0.40;;;20.30;56.60;;;;;;6243005;28;20026;-66
2022/10/10 03:16:34;;;;;;;1.95;0.60;;;20.30;56.50;;;;;;6242773;28;20021;-66
2022/10/10 03:19:35;;;;;;;0.80;0.40;;;20.30;56.60;;;;;;6243132;28;20029;-65
2022/10/10 03:22:35;;;;;;;0.60;0.40;;;20.30;56.50;;;;;;6242873;28;20394;-64
2022/10/10 03:25:40;;;;;;;0.30;0.30;;;20.30;56.50;;;;;;6242800;28;20052;-66
2022/10/10 03:28:41;;;;;;;0.40;0.35;;;20.30;56.50;;;;;;6242818;28;20383;-66
2022/10/10 03:31:41;;;;;;;1.00;0.40;;;20.30;56.50;;;;;;6242841;28;20074;-66
2022/10/10 03:34:42;;;;;;;0.40;0.40;;;20.30;56.50;;;;;;6247481;28;20021;-65
2022/10/10 03:37:43;;;;;;;0.60;0.40;;;20.30;56.60;;;;;;6263201;28;20112;-66
2022/10/10 03:40:44;;;;;;;0.70;0.50;;;20.30;56.50;;;;;;6247866;28;20073;-67
2022/10/10 03:43:45;;;;;;;0.82;0.43;;;20.30;56.50;;;;;;6247546;28;20390;-65
2022/10/10 03:46:46;;;;;;;0.38;0.38;;;20.30;56.50;;;;;;6263080;28;20024;-66
2022/10/10 03:49:46;;;;;;;0.77;0.45;;;20.30;56.50;;;;;;6247582;28;20041;-69
2022/10/10 03:52:47;;;;;;;0.90;0.50;;;20.30;56.50;;;;;;6262948;28;20364;-66
2022/10/10 03:55:48;;;;;;;0.90;0.50;;;20.30;56.50;;;;;;6247499;28;20017;-66
2022/10/10 03:58:48;;;;;;;1.20;0.60;;;20.30;56.50;;;;;;6246484;28;20025;-66
2022/10/10 04:01:49;;;;;;;0.70;0.47;;;20.30;56.50;;;;;;6247293;28;20525;-65
2022/10/10 04:04:50;;;;;;;0.57;0.40;;;20.30;56.50;;;;;;6247372;28;20497;-65
2022/10/10 04:07:51;;;;;;;0.50;0.40;;;20.30;56.50;;;;;;6247631;28;20533;-65
2022/10/10 04:10:53;;;;;;;1.08;0.40;;;20.30;56.50;;;;;;6246859;28;20032;-66
2022/10/10 04:13:54;;;;;;;0.57;0.50;;;20.30;56.50;;;;;;6246753;28;20033;-66
2022/10/10 04:16:54;;;;;;;0.60;0.40;;;20.30;56.40;;;;;;6245404;28;20100;-66
2022/10/10 04:19:55;;;;;;;0.63;0.43;;;20.30;56.20;;;;;;6246409;28;20199;-65
2022/10/10 04:22:56;;;;;;;1.10;0.57;;;20.30;56.20;;;;;;6246532;28;20076;-66
2022/10/10 04:25:56;;;;;;;0.65;0.50;;;20.30;56.30;;;;;;6246434;28;20308;-65
2022/10/10 04:28:57;;;;;;;0.73;0.30;;;20.30;56.40;;;;;;6245371;28;20033;-66
2022/10/10 04:31:59;;;;;;;0.65;0.43;;;20.30;56.30;;;;;;6262157;28;20033;-65
2022/10/10 04:35:00;;;;;;;0.75;0.43;;;20.30;56.30;;;;;;6246524;28;20356;-66
2022/10/10 04:38:00;;;;;;;0.98;0.45;;;20.30;56.20;;;;;;6246677;28;20033;-66
2022/10/10 04:41:02;;;;;;;0.60;0.50;;;20.30;56.10;;;;;;6245311;28;20021;-66
2022/10/10 04:44:03;;;;;;;0.82;0.50;;;20.30;56.00;;;;;;6244956;28;20017;-66
2022/10/10 04:47:03;;;;;;;0.57;0.35;;;20.30;56.40;;;;;;6245100;28;20113;-66
2022/10/10 04:50:04;;;;;;;0.88;0.40;;;20.30;56.40;;;;;;6246180;28;20521;-66
2022/10/10 04:53:06;;;;;;;0.55;0.40;;;20.30;56.30;;;;;;6246513;28;20052;-66
2022/10/10 04:56:07;;;;;;;0.98;0.50;;;20.30;56.50;;;;;;6244803;28;20022;-65
2022/10/10 05:03:05;;;;;;;0.85;0.50;;;20.30;56.40;;;;;;6246040;28;20034;-66
2022/10/10 05:06:05;;;;;;;0.75;0.50;;;20.30;56.30;;;;;;6245856;28;20025;-66
2022/10/10 05:09:06;;;;;;;0.70;0.43;;;20.30;56.20;;;;;;6245567;28;20364;-66
2022/10/10 05:12:08;;;;;;;0.90;0.50;;;20.30;56.10;;;;;;6245438;28;20036;-66
2022/10/10 05:15:09;;;;;;;1.33;0.55;;;20.30;56.40;;;;;;6260932;28;20490;-66
2022/10/10 05:18:10;;;;;;;0.35;0.30;;;20.30;56.50;;;;;;6260424;28;20110;-64
2022/10/10 05:21:11;;;;;;;0.43;0.43;;;20.30;56.30;;;;;;6245454;28;20025;-66
2022/10/10 05:24:11;;;;;;;0.88;0.57;;;20.30;56.40;;;;;;6245328;28;20022;-66
2022/10/10 05:27:12;;;;;;;0.77;0.40;;;20.30;56.30;;;;;;6245420;28;20014;-66
2022/10/10 05:30:13;;;;;;;0.38;0.30;;;20.30;56.30;;;;;;6243993;28;20573;-66
2022/10/10 05:33:14;;;;;;;0.70;0.50;;;20.30;56.40;;;;;;6245488;28;20026;-66
2022/10/10 05:36:15;;;;;;;1.20;0.70;;;20.30;56.10;;;;;;6245352;28;20530;-66
2022/10/10 05:39:15;;;;;;;1.00;0.63;;;20.30;56.40;;;;;;6244100;28;20029;-65
2022/10/10 05:42:16;;;;;;;0.80;0.52;;;20.30;56.40;;;;;;6245109;28;20022;-66
2022/10/10 05:45:17;;;;;;;1.05;0.60;;;20.30;56.40;;;;;;6244919;28;20068;-66
2022/10/10 05:48:17;;;;;;;0.82;0.50;;;20.30;56.40;;;;;;6244677;28;20111;-66
2022/10/10 05:51:19;;;;;;;0.73;0.50;;;20.30;56.40;;;;;;6244675;28;20032;-66
2022/10/10 05:54:21;;;;;;;0.63;0.40;;;20.30;56.30;;;;;;6245134;28;20021;-67
2022/10/10 05:57:21;;;;;;;1.30;0.50;;;20.30;56.30;;;;;;6259802;28;20120;-66
2022/10/10 06:00:22;;;;;;;0.77;0.50;;;20.30;56.40;;;;;;6245885;28;20586;-66
2022/10/10 06:03:23;;;;;;;0.63;0.50;;;20.30;56.20;;;;;;6246532;28;20025;-65
2022/10/10 06:06:24;;;;;;;0.68;0.43;;;20.30;56.40;;;;;;6242111;28;20033;-65
2022/10/10 06:09:25;;;;;;;0.63;0.50;;;20.30;56.40;;;;;;6245794;28;20025;-65
2022/10/10 06:12:26;;;;;;;1.60;0.50;;;20.30;56.40;;;;;;6252710;28;20032;-66
2022/10/10 06:15:26;;;;;;;0.30;0.30;;;20.30;56.20;;;;;;6268364;28;20033;-66
2022/10/10 06:18:27;;;;;;;1.73;0.60;;;20.30;56.40;;;;;;6270012;28;20064;-66
2022/10/10 06:21:28;;;;;;;2.70;0.60;;;20.30;56.40;;;;;;6270440;28;20386;-65
2022/10/10 06:24:28;;;;;;;0.90;0.52;;;20.30;56.10;;;;;;6270214;28;20476;-66
2022/10/10 06:27:29;;;;;;;0.60;0.50;;;20.30;56.30;;;;;;6266967;28;20052;-65
2022/10/10 06:30:30;;;;;;;0.93;0.60;;;20.30;56.20;;;;;;6264268;28;20021;-65
2022/10/10 06:33:31;;;;;;;1.48;0.60;;;20.30;56.40;;;;;;6266808;28;20020;-63
2022/10/10 06:36:32;;;;;;;2.78;0.60;;;20.30;56.20;;;;;;6269907;28;20576;-66
2022/10/10 06:39:33;;;;;;;1.60;0.80;;;20.30;56.30;;;;;;6268530;28;20048;-65
2022/10/10 06:42:33;;;;;;;1.02;0.65;;;20.30;56.20;;;;;;6269772;28;20043;-65
2022/10/10 06:45:36;;;;;;;1.55;0.55;;;20.30;56.40;;;;;;6268432;28;20074;-65
2022/10/10 06:48:36;;;;;;;0.75;0.50;;;20.30;56.40;;;;;;6264603;28;20033;-63
2022/10/10 06:51:38;;;;;;;1.38;0.52;;;20.30;56.40;;;;;;6265731;28;20069;-66
2022/10/10 06:54:38;;;;;;;1.67;0.60;;;20.30;56.30;;;;;;6266570;28;20166;-66
2022/10/10 06:57:39;;;;;;;1.63;0.80;;;20.40;56.40;;;;;;6267314;28;20032;-66
2022/10/10 07:00:40;;;;;;;2.75;0.63;;;20.40;56.50;;;;;;6267994;28;20128;-66
2022/10/10 07:03:40;;;;;;;1.23;0.80;;;20.40;56.40;;;;;;6267084;28;20078;-65
2022/10/10 07:06:42;;;;;;;1.58;0.75;;;20.40;56.30;;;;;;6266833;28;20514;-66
2022/10/10 07:09:42;;;;;;;1.70;0.63;;;20.40;56.40;;;;;;6268565;28;20079;-65
2022/10/10 07:12:43;;;;;;;1.67;0.65;;;20.50;56.00;;;;;;6269034;28;20469;-66
2022/10/10 07:15:44;;;;;;;1.60;0.70;;;20.60;55.90;;;;;;6268938;28;20393;-66
2022/10/10 07:18:45;;;;;;;1.63;0.82;;;20.70;56.00;;;;;;6268874;28;20060;-66
2022/10/10 07:21:45;;;;;;;2.17;0.55;;;20.70;55.90;;;;;;6266544;28;20028;-67
2022/10/10 07:24:46;;;;;;;1.30;0.70;;;20.70;55.70;;;;;;6250126;28;20025;-67
2022/10/10 07:27:48;;;;;;;1.20;0.50;;;20.70;55.70;;;;;;6245780;28;20109;-67
2022/10/10 07:30:49;;;;;;;3.45;0.63;;;20.70;55.60;;;;;;6258050;28;20552;-67
2022/10/10 07:33:50;;;;;;;3.85;0.60;;;20.70;55.70;;;;;;6256349;28;20036;-67
2022/10/10 07:36:51;;;;;;;0.68;0.60;;;20.80;55.60;;;;;;6248346;28;20032;-67
2022/10/10 07:39:52;;;;;;;1.30;0.60;;;20.80;55.50;;;;;;6265235;28;20446;-69
2022/10/10 07:42:53;;;;;;;1.45;0.65;;;20.80;55.60;;;;;;6266984;28;20092;-70
2022/10/10 07:45:54;;;;;;;1.17;0.70;;;20.80;55.30;;;;;;6245534;28;20113;-69
2022/10/10 07:48:54;;;;;;;3.47;0.60;;;20.80;55.40;;;;;;6248251;28;20171;-71
2022/10/10 07:51:56;;;;;;;3.20;0.63;;;20.80;55.50;;;;;;6248569;28;20036;-69
2022/10/10 07:54:57;;;;;;;0.90;0.43;;;20.80;55.60;;;;;;6254951;28;20037;-69
2022/10/10 07:57:58;;;;;;;1.33;0.60;;;20.80;55.60;;;;;;6244445;28;20448;-68
2022/10/10 08:01:04;;;;;;;2.33;0.73;;;20.80;55.60;;;;;;6257935;28;20036;-69
2022/10/10 08:04:05;;;;;;;2.15;0.70;;;20.80;55.80;;;;;;6242908;28;20074;-74
2022/10/10 08:07:06;;;;;;;1.10;0.52;;;20.90;55.60;;;;;;6266988;28;20025;-68
2022/10/10 08:10:08;;;;;;;1.33;0.63;;;20.90;55.50;;;;;;6258034;28;20494;-69
2022/10/10 08:13:09;;;;;;;1.10;0.50;;;20.90;55.80;;;;;;6264766;28;20037;-68
2022/10/10 08:16:10;;;;;;;6.30;0.65;;;21.00;55.50;;;;;;6250109;28;20678;-68
2022/10/10 08:19:10;;;;;;;1.10;0.60;;;21.00;55.50;;;;;;6261144;28;20036;-68
2022/10/10 08:22:11;;;;;;;1.92;0.82;;;21.00;55.40;;;;;;6259892;28;20025;-68
2022/10/10 08:25:12;;;;;;;2.65;0.93;;;21.10;55.30;;;;;;6271497;28;20135;-69
2022/10/10 08:28:13;;;;;;;7.68;0.95;;;21.10;55.40;;;;;;6270054;28;20025;-69
2022/10/10 08:31:17;;;;;;;12.18;0.80;;;21.10;55.40;;;;;;6262060;28;20128;-68
2022/10/10 08:34:18;;;;;;;16.65;0.90;;;21.20;55.40;;;;;;6242479;28;20080;-69
2022/10/10 08:37:18;;;;;;;8.48;0.82;;;21.10;55.10;;;;;;6259728;28;20493;-68
2022/10/10 08:40:20;;;;;;;5.80;0.68;;;21.10;55.20;;;;;;6269628;28;20371;-69
2022/10/10 08:43:27;;;;;;;9.57;0.68;;;21.10;55.40;;;;;;6269017;28;20147;-68
2022/10/10 08:46:57;;;;;;;1.95;0.60;;;21.20;55.40;;;;;;6269195;28;20117;-69
2022/10/10 08:50:03;;;;;;;4.85;0.73;;;21.10;55.30;;;;;;6266275;28;20065;-69
2022/10/10 08:53:27;;;;;;;1.75;0.70;;;21.10;55.20;;;;;;6247474;28;20026;-68
2022/10/10 08:56:33;;;;;;;3.72;1.00;;;21.00;55.30;;;;;;6260559;28;20572;-68
2022/10/10 08:59:38;;;;;;;4.47;1.50;;;21.00;55.60;;;;;;6269396;28;20037;-68
2022/10/10 09:02:57;;;;;;;5.03;1.92;;;21.00;54.60;;;;;;6269579;28;20047;-68
2022/10/10 09:06:26;;;;;;;4.47;1.70;;;21.00;54.70;;;;;;6270826;28;20017;-70
2022/10/10 09:09:51;;;;;;;8.45;1.92;;;21.00;54.30;;;;;;6246017;28;20026;-70
2022/10/10 09:12:55;;;;;;;9.10;2.35;;;20.90;54.30;;;;;;6268553;28;20478;-69
2022/10/10 09:16:32;;;;;;;7.38;2.40;;;20.90;54.10;;;;;;6270527;28;20013;-69
2022/10/10 09:20:00;;;;;;;6.47;1.98;;;20.90;53.70;;;;;;6245935;28;20022;-68
2022/10/10 09:23:15;;;;;;;7.93;2.75;;;20.90;53.60;;;;;;6269700;28;20068;-68
2022/10/10 09:26:21;;;;;;;5.25;2.30;;;20.90;53.40;;;;;;6262873;28;20120;-67
2022/10/10 09:29:48;;;;;;;11.35;3.13;;;20.90;53.20;;;;;;6267527;28;20025;-68
2022/10/10 09:33:00;;;;;;;16.98;3.83;;;21.00;51.70;;;;;;6252119;28;20055;-68
2022/10/10 09:36:05;;;;;;;26.00;6.75;;;21.20;52.50;;;;;;6266122;28;20014;-68
2022/10/10 09:39:23;;;;;;;15.75;4.57;;;21.20;53.00;;;;;;6264416;28;20386;-69
2022/10/10 09:42:35;;;;;;;11.77;4.35;;;21.20;52.80;;;;;;6269561;28;20477;-68
2022/10/10 09:45:40;;;;;;;16.33;4.53;;;21.20;52.70;;;;;;6259703;28;20390;-68
2022/10/10 09:48:42;;;;;;;12.90;4.57;;;21.20;52.90;;;;;;6257974;28;20041;-70
2022/10/10 09:51:43;;;;;;;12.93;4.25;;;21.20;53.20;;;;;;6269146;28;20116;-68
2022/10/10 09:54:46;;;;;;;11.20;4.07;;;21.20;53.50;;;;;;6241564;28;20065;-68
2022/10/10 09:57:50;;;;;;;13.18;3.97;;;21.20;53.20;;;;;;6269806;28;20037;-68
2022/10/10 10:00:52;;;;;;;9.27;4.30;;;21.10;53.40;;;;;;6269509;28;20029;-68
2022/10/10 10:04:16;;;;;;;9.32;3.75;;;21.10;53.50;;;;;;6269693;28;20025;-68
2022/10/10 10:07:22;;;;;;;12.75;3.50;;;21.10;53.50;;;;;;6269361;28;20166;-68
2022/10/10 10:10:26;;;;;;;11.15;3.85;;;21.20;53.30;;;;;;6245329;28;20383;-68
2022/10/10 10:13:33;;;;;;;12.88;4.00;;;21.20;53.00;;;;;;6268827;28;20024;-68
2022/10/10 10:16:37;;;;;;;22.13;5.82;;;21.30;53.10;;;;;;6268387;28;20017;-68
2022/10/10 10:19:40;;;;;;;16.70;4.47;;;21.30;53.50;;;;;;6268630;28;20112;-68
2022/10/10 10:22:45;;;;;;;19.85;4.97;;;21.20;53.10;;;;;;6267877;28;20035;-68
2022/10/10 10:26:05;;;;;;;26.92;5.65;;;21.30;53.40;;;;;;6267118;28;20025;-67
2022/10/10 10:29:30;;;;;;;22.70;5.25;;;21.30;53.60;;;;;;6265150;28;20037;-68
2022/10/10 10:32:46;;;;;;;19.23;5.07;;;21.30;53.60;;;;;;6269319;28;20086;-70
2022/10/10 10:35:47;;;;;;;14.82;5.15;;;21.30;53.80;;;;;;6268495;28;20033;-68
2022/10/10 10:38:53;;;;;;;15.40;5.00;;;21.30;53.70;;;;;;6265860;28;20576;-68
2022/10/10 10:42:31;;;;;;;15.75;4.88;;;21.30;53.80;;;;;;6266401;28;20090;-68
2022/10/10 10:45:43;;;;;;;19.05;4.85;;;21.30;53.60;;;;;;6267732;28;20401;-68
2022/10/10 10:49:06;;;;;;;15.18;4.63;;;21.30;53.70;;;;;;6251968;28;20077;-69
2022/10/10 10:52:15;;;;;;;11.63;4.38;;;21.40;53.70;;;;;;6255288;28;20087;-68
2022/10/10 10:55:25;;;;;;;13.02;4.28;;;21.30;53.90;;;;;;6264830;28;20029;-68
2022/10/10 10:58:43;;;;;;;9.93;3.80;;;21.30;53.90;;;;;;6248358;28;20041;-68
2022/10/10 11:02:10;;;;;;;12.27;4.13;;;21.20;53.80;;;;;;6265298;28;20517;-69
2022/10/10 11:05:56;;;;;;;10.63;3.85;;;21.20;53.80;;;;;;6258176;28;20390;-68
2022/10/10 11:09:15;;;;;;;17.73;4.00;;;21.20;54.00;;;;;;6236622;28;20476;-69
2022/10/10 11:12:37;;;;;;;9.43;3.88;;;21.20;54.10;;;;;;6249055;28;20034;-68
2022/10/10 11:15:48;;;;;;;9.98;3.63;;;21.20;53.90;;;;;;6260575;28;20097;-69
2022/10/10 11:19:04;;;;;;;10.27;3.42;;;21.20;54.00;;;;;;6265458;28;20086;-69
2022/10/10 11:22:10;;;;;;;6.50;3.15;;;21.10;54.00;;;;;;6263188;28;20123;-68
2022/10/10 11:25:29;;;;;;;10.02;3.67;;;21.20;53.90;;;;;;6254621;28;20543;-68
2022/10/10 11:28:40;;;;;;;9.35;3.63;;;21.10;54.00;;;;;;6260117;28;20045;-68
2022/10/10 11:31:43;;;;;;;9.25;3.42;;;21.10;53.90;;;;;;6246631;28;20028;-68
2022/10/10 11:35:01;;;;;;;5.95;3.33;;;21.20;54.50;;;;;;6260195;28;20424;-69
2022/10/10 11:38:12;;;;;;;6.82;2.53;;;21.10;54.20;;;;;;6263946;28;20186;-68
2022/10/10 11:41:34;;;;;;;8.48;3.42;;;21.10;54.10;;;;;;6260228;28;20029;-69
2022/10/10 11:44:55;;;;;;;13.45;4.00;;;21.10;54.10;;;;;;6255741;28;20047;-69
2022/10/10 11:48:09;;;;;;;7.53;3.38;;;21.20;54.00;;;;;;6241587;28;20056;-69
2022/10/10 11:51:33;;;;;;;7.07;2.92;;;21.10;54.00;;;;;;6263568;28;20032;-68
2022/10/10 11:54:54;;;;;;;6.82;3.17;;;21.20;54.10;;;;;;6253597;28;20059;-69
2022/10/10 11:58:04;;;;;;;11.02;2.78;;;21.20;54.10;;;;;;6270818;28;20172;-69
2022/10/10 12:01:14;;;;;;;5.13;2.45;;;21.30;54.10;;;;;;6259573;28;20075;-69
2022/10/10 12:04:15;;;;;;;7.95;2.50;;;21.20;54.00;;;;;;6253522;28;20032;-69
2022/10/10 12:07:32;;;;;;;6.05;2.47;;;21.20;54.10;;;;;;6270764;28;20095;-68
2022/10/10 12:11:04;;;;;;;5.45;2.53;;;21.20;54.10;;;;;;6265532;28;20021;-69
2022/10/10 12:14:11;;;;;;;5.95;2.70;;;21.30;54.10;;;;;;6244962;28;20675;-69
2022/10/10 12:17:21;;;;;;;4.45;2.05;;;21.30;54.10;;;;;;6245435;28;20025;-69
2022/10/10 12:20:25;;;;;;;5.97;2.83;;;21.20;54.10;;;;;;6255279;28;20027;-68
2022/10/10 12:23:30;;;;;;;5.95;2.42;;;21.30;54.10;;;;;;6269793;28;20029;-67
2022/10/10 12:26:55;;;;;;;5.05;2.25;;;21.40;53.90;;;;;;6267880;28;20028;-66
2022/10/10 12:29:56;;;;;;;9.65;2.80;;;21.40;53.80;;;;;;6270212;28;20021;-66
2022/10/10 12:32:57;;;;;;;8.10;2.50;;;21.50;54.00;;;;;;6270581;28;20051;-69
2022/10/10 12:36:17;;;;;;;5.35;2.13;;;21.50;53.70;;;;;;6267031;28;20025;-67
2022/10/10 12:39:18;;;;;;;5.65;2.25;;;21.50;53.80;;;;;;6268216;28;20029;-67
2022/10/10 12:42:47;;;;;;;6.70;2.70;;;21.50;53.70;;;;;;6265814;28;20107;-68
2022/10/10 12:46:05;;;;;;;11.23;3.20;;;21.50;53.70;;;;;;6260340;28;20028;-68
2022/10/10 12:49:23;;;;;;;11.25;2.90;;;21.60;53.90;;;;;;6269964;28;20120;-67
2022/10/10 12:52:31;;;;;;;8.48;3.38;;;21.60;53.80;;;;;;6264975;28;20025;-68
2022/10/10 12:55:42;;;;;;;7.30;3.40;;;21.60;53.70;;;;;;6264458;28;20033;-68
2022/10/10 12:58:47;;;;;;;9.98;3.55;;;21.60;53.80;;;;;;6272150;28;20043;-68
2022/10/10 13:02:00;;;;;;;9.88;3.42;;;21.50;53.80;;;;;;6265107;28;20050;-67
2022/10/10 13:05:03;;;;;;;9.65;3.30;;;21.40;53.80;;;;;;6267400;28;20024;-68
2022/10/10 13:08:17;;;;;;;10.93;3.10;;;21.40;53.90;;;;;;6268124;28;20099;-68
2022/10/10 13:11:17;;;;;;;9.88;3.10;;;21.30;54.00;;;;;;6264651;28;20056;-68
2022/10/10 13:14:18;;;;;;;6.93;3.05;;;21.30;54.10;;;;;;6269530;28;20033;-68
2022/10/10 13:17:36;;;;;;;9.57;3.38;;;21.20;54.10;;;;;;6266414;28;20098;-68
2022/10/10 13:20:39;;;;;;;9.98;3.40;;;21.20;54.10;;;;;;6261499;28;20021;-68
2022/10/10 13:23:43;;;;;;;9.38;3.30;;;21.20;54.20;;;;;;6268433;28;20039;-68
2022/10/10 13:26:47;;;;;;;7.47;2.78;;;21.20;54.30;;;;;;6267221;28;20480;-68
2022/10/10 13:29:48;;;;;;;6.25;2.70;;;21.20;54.30;;;;;;6268564;28;20035;-68
2022/10/10 13:32:51;;;;;;;8.43;2.53;;;21.10;54.30;;;;;;6254300;28;20494;-68
2022/10/10 13:35:52;;;;;;;9.65;2.88;;;21.10;54.30;;;;;;6245673;28;20037;-67
2022/10/10 13:38:55;;;;;;;8.05;2.70;;;21.10;54.40;;;;;;6273006;28;20024;-71
2022/10/10 13:42:00;;;;;;;7.60;2.95;;;21.10;54.40;;;;;;6255524;28;20109;-70
2022/10/10 13:45:22;;;;;;;5.28;2.33;;;21.10;54.50;;;;;;6251937;28;20036;-66
2022/10/10 13:48:36;;;;;;;7.60;3.03;;;21.10;54.60;;;;;;6271787;28;20453;-66
2022/10/10 13:51:43;;;;;;;6.82;2.67;;;21.10;54.60;;;;;;6265426;28;20081;-68
2022/10/10 13:54:47;;;;;;;6.97;2.70;;;21.10;54.70;;;;;;6268481;28;20059;-68
2022/10/10 13:57:50;;;;;;;11.40;2.60;;;21.00;54.60;;;;;;6249880;28;20080;-68
2022/10/10 14:01:02;;;;;;;7.05;2.90;;;21.00;54.70;;;;;;6243330;28;20292;-68
2022/10/10 14:04:12;;;;;;;5.00;2.45;;;21.00;54.90;;;;;;6246343;28;20021;-68
2022/10/10 14:07:25;;;;;;;11.20;2.70;;;21.00;55.00;;;;;;6251437;28;20040;-67
2022/10/10 14:10:32;;;;;;;10.07;2.80;;;21.00;55.00;;;;;;6268461;28;20087;-67
2022/10/10 14:13:36;;;;;;;8.65;2.92;;;21.00;55.10;;;;;;6268760;28;20521;-68
2022/10/10 14:16:37;;;;;;;7.53;2.83;;;21.00;55.10;;;;;;6267735;28;20021;-68
2022/10/10 14:19:38;;;;;;;6.30;2.67;;;21.00;55.10;;;;;;6268234;28;20043;-68
2022/10/10 14:22:39;;;;;;;8.07;2.80;;;21.00;55.10;;;;;;6260913;28;20032;-68
2022/10/10 14:25:42;;;;;;;8.77;3.00;;;20.90;55.10;;;;;;6267829;28;20021;-68
2022/10/10 14:28:44;;;;;;;7.28;2.70;;;20.90;55.10;;;;;;6263846;28;20029;-68
2022/10/10 14:31:45;;;;;;;7.20;2.75;;;20.90;55.10;;;;;;6262078;28;20029;-68
2022/10/10 14:34:46;;;;;;;10.65;2.35;;;20.90;55.10;;;;;;6261025;28;20059;-68
2022/10/10 14:37:47;;;;;;;5.88;2.40;;;20.90;55.10;;;;;;6271193;28;20091;-68
2022/10/10 14:40:49;;;;;;;6.10;2.30;;;20.90;55.20;;;;;;6242290;28;20056;-68
2022/10/10 14:43:50;;;;;;;5.65;2.60;;;20.90;55.30;;;;;;6266223;28;20032;-70
2022/10/10 14:46:51;;;;;;;7.18;2.30;;;20.90;55.20;;;;;;6268960;28;20081;-71
2022/10/10 14:49:52;;;;;;;6.07;2.38;;;20.90;55.30;;;;;;6234427;28;20140;-67
2022/10/10 14:52:53;;;;;;;4.00;2.08;;;20.90;55.30;;;;;;6270215;28;20017;-68
2022/10/10 14:55:53;;;;;;;5.15;2.40;;;20.90;55.30;;;;;;6266625;28;20044;-67
2022/10/10 14:58:54;;;;;;;5.35;2.38;;;20.90;55.40;;;;;;6266022;28;20091;-67
2022/10/10 15:01:55;;;;;;;5.97;2.30;;;20.90;55.20;;;;;;6252638;28;20399;-66
2022/10/10 15:04:55;;;;;;;8.63;2.78;;;20.90;55.20;;;;;;6267639;28;20029;-67
2022/10/10 15:07:56;;;;;;;4.72;1.90;;;20.90;55.20;;;;;;6263075;28;20471;-67
2022/10/10 15:10:57;;;;;;;6.93;2.28;;;20.90;55.20;;;;;;6260477;28;20516;-67
2022/10/10 15:13:58;;;;;;;6.20;2.78;;;20.90;55.20;;;;;;6246783;28;20034;-68
2022/10/10 15:16:59;;;;;;;7.65;2.30;;;20.90;55.30;;;;;;6242157;28;20029;-68
2022/10/10 15:20:02;;;;;;;7.57;1.98;;;20.90;55.10;;;;;;6263789;28;20029;-68
2022/10/10 15:23:05;;;;;;;4.78;2.20;;;20.90;55.20;;;;;;6251126;28;20032;-67
2022/10/10 15:26:06;;;;;;;4.38;2.00;;;20.90;55.10;;;;;;6267597;28;20104;-67
2022/10/10 15:29:07;;;;;;;4.63;1.95;;;20.90;55.10;;;;;;6263668;28;20031;-68
2022/10/10 15:32:07;;;;;;;5.45;1.90;;;20.90;55.20;;;;;;6276149;28;20063;-67
2022/10/10 15:35:20;;;;;;;3.85;2.00;;;20.90;55.10;;;;;;6256646;28;20510;-68
2022/10/10 15:38:20;;;;;;;3.53;1.90;;;20.90;55.10;;;;;;6246797;28;20020;-68
2022/10/10 15:41:21;;;;;;;4.88;1.75;;;20.90;55.10;;;;;;6266276;28;20461;-68
2022/10/10 15:44:22;;;;;;;4.05;1.80;;;20.90;55.20;;;;;;6251591;28;20018;-68
2022/10/10 15:47:23;;;;;;;2.95;1.77;;;20.90;55.10;;;;;;6242725;28;20021;-68
2022/10/10 15:50:23;;;;;;;2.78;1.70;;;20.90;55.20;;;;;;6265344;28;20022;-67
2022/10/10 15:53:27;;;;;;;3.50;1.90;;;20.90;55.30;;;;;;6280434;28;20047;-66
2022/10/10 15:56:29;;;;;;;3.75;1.77;;;20.90;55.30;;;;;;6267003;28;20030;-67
2022/10/10 15:59:30;;;;;;;9.20;2.17;;;20.90;55.30;;;;;;6262059;28;20154;-68
2022/10/10 16:02:31;;;;;;;2.60;1.50;;;20.90;55.30;;;;;;6265972;28;20573;-68
2022/10/10 16:05:35;;;;;;;3.70;1.90;;;20.90;55.40;;;;;;6266872;28;20024;-68
2022/10/10 16:08:37;;;;;;;2.72;1.88;;;20.90;55.40;;;;;;6263396;28;20030;-67
2022/10/10 16:11:38;;;;;;;2.33;1.45;;;20.90;55.30;;;;;;6265887;28;20056;-67